Аэропорт: Остафьево. Москва

ICAO: UUMO

METAR:
2018/11/21 18:30
UUMO 211830Z 32006MPS 9999 BKN021 M01/M05 Q1021 R26/090060 NOSIG RMK QFE750/1000
METAR:
Информация по данной станции не доступна